sensor_id;sensor_type;location;lat;lon;timestamp;pressure;altitude;pressure_sealevel;temperature;humidity
42761;BME280;31672;47.638;19.026;2023-04-20T00:01:41;100025.94;;;7.20;88.84
42761;BME280;31672;47.638;19.026;2023-04-20T00:06:44;100021.88;;;7.26;89.18
42761;BME280;31672;47.638;19.026;2023-04-20T00:11:47;100015.59;;;7.27;89.68
42761;BME280;31672;47.638;19.026;2023-04-20T00:16:50;100018.09;;;7.29;89.32
42761;BME280;31672;47.638;19.026;2023-04-20T00:21:53;100012.97;;;7.27;89.25
42761;BME280;31672;47.638;19.026;2023-04-20T00:26:56;100012.25;;;7.25;89.22
42761;BME280;31672;47.638;19.026;2023-04-20T00:31:59;100006.34;;;7.13;89.28
42761;BME280;31672;47.638;19.026;2023-04-20T00:37:02;100014.38;;;7.04;89.48
42761;BME280;31672;47.638;19.026;2023-04-20T00:42:07;100018.06;;;6.93;90.48
42761;BME280;31672;47.638;19.026;2023-04-20T00:47:10;100004.19;;;6.91;90.91
42761;BME280;31672;47.638;19.026;2023-04-20T00:52:13;100007.81;;;6.90;91.08
42761;BME280;31672;47.638;19.026;2023-04-20T00:57:18;100010.06;;;6.85;90.91
42761;BME280;31672;47.638;19.026;2023-04-20T01:02:25;100014.94;;;6.80;90.84
42761;BME280;31672;47.638;19.026;2023-04-20T01:07:29;100013.56;;;6.76;90.94
42761;BME280;31672;47.638;19.026;2023-04-20T01:12:33;100010.13;;;6.65;90.58
42761;BME280;31672;47.638;19.026;2023-04-20T01:17:36;100015.34;;;6.57;90.89
42761;BME280;31672;47.638;19.026;2023-04-20T01:22:44;100000.75;;;6.53;90.92
42761;BME280;31672;47.638;19.026;2023-04-20T01:27:47;100013.13;;;6.53;91.15
42761;BME280;31672;47.638;19.026;2023-04-20T01:32:50;100004.69;;;6.49;91.50
42761;BME280;31672;47.638;19.026;2023-04-20T01:37:53;99999.69;;;6.46;91.41
42761;BME280;31672;47.638;19.026;2023-04-20T01:42:56;99999.28;;;6.41;91.38
42761;BME280;31672;47.638;19.026;2023-04-20T01:48:00;100003.34;;;6.35;91.24
42761;BME280;31672;47.638;19.026;2023-04-20T01:53:03;100004.78;;;6.30;91.29
42761;BME280;31672;47.638;19.026;2023-04-20T01:58:06;100001.44;;;6.28;91.34
42761;BME280;31672;47.638;19.026;2023-04-20T02:03:09;100000.03;;;6.24;91.42
42761;BME280;31672;47.638;19.026;2023-04-20T02:08:13;100003.25;;;6.17;91.38
42761;BME280;31672;47.638;19.026;2023-04-20T02:13:16;100002.75;;;6.14;91.50
42761;BME280;31672;47.638;19.026;2023-04-20T02:18:18;100005.66;;;6.11;91.44
42761;BME280;31672;47.638;19.026;2023-04-20T02:23:21;100002.50;;;6.07;91.58
42761;BME280;31672;47.638;19.026;2023-04-20T02:28:24;100000.13;;;6.04;91.44
42761;BME280;31672;47.638;19.026;2023-04-20T02:33:30;99996.25;;;5.99;91.62
42761;BME280;31672;47.638;19.026;2023-04-20T02:38:33;100001.00;;;5.95;91.46
42761;BME280;31672;47.638;19.026;2023-04-20T02:43:36;99998.91;;;5.89;91.63
42761;BME280;31672;47.638;19.026;2023-04-20T02:48:39;100004.59;;;5.84;91.63
42761;BME280;31672;47.638;19.026;2023-04-20T02:53:42;100007.66;;;5.80;91.58
42761;BME280;31672;47.638;19.026;2023-04-20T02:58:45;100019.47;;;5.76;91.58
42761;BME280;31672;47.638;19.026;2023-04-20T03:03:50;100017.78;;;5.75;91.90
42761;BME280;31672;47.638;19.026;2023-04-20T03:08:53;100023.34;;;5.72;92.11
42761;BME280;31672;47.638;19.026;2023-04-20T03:13:56;100026.13;;;5.70;92.25
42761;BME280;31672;47.638;19.026;2023-04-20T03:18:59;100026.41;;;5.67;92.51
42761;BME280;31672;47.638;19.026;2023-04-20T03:24:03;100016.97;;;5.64;92.41
42761;BME280;31672;47.638;19.026;2023-04-20T03:29:06;100024.19;;;5.62;92.42
42761;BME280;31672;47.638;19.026;2023-04-20T03:34:09;100022.81;;;5.58;92.54
42761;BME280;31672;47.638;19.026;2023-04-20T03:39:12;100031.00;;;5.55;92.36
42761;BME280;31672;47.638;19.026;2023-04-20T03:44:15;100034.59;;;5.54;92.71
42761;BME280;31672;47.638;19.026;2023-04-20T03:49:23;100033.78;;;5.54;92.91
42761;BME280;31672;47.638;19.026;2023-04-20T03:54:29;100046.13;;;5.53;92.99
42761;BME280;31672;47.638;19.026;2023-04-20T03:59:33;100038.22;;;5.53;92.94
42761;BME280;31672;47.638;19.026;2023-04-20T04:04:35;100034.75;;;5.53;92.77
42761;BME280;31672;47.638;19.026;2023-04-20T04:09:39;100042.09;;;5.59;93.20
42761;BME280;31672;47.638;19.026;2023-04-20T04:14:42;100037.94;;;5.66;93.40
42761;BME280;31672;47.638;19.026;2023-04-20T04:19:45;100038.75;;;5.76;93.63
42761;BME280;31672;47.638;19.026;2023-04-20T04:24:48;100048.28;;;5.87;93.54
42761;BME280;31672;47.638;19.026;2023-04-20T04:29:51;100047.19;;;5.99;93.80
42761;BME280;31672;47.638;19.026;2023-04-20T04:34:54;100043.56;;;6.10;94.04
42761;BME280;31672;47.638;19.026;2023-04-20T04:39:57;100037.00;;;6.24;94.32
42761;BME280;31672;47.638;19.026;2023-04-20T04:45:01;100041.50;;;6.41;94.56
42761;BME280;31672;47.638;19.026;2023-04-20T04:50:07;100048.56;;;6.60;94.64
42761;BME280;31672;47.638;19.026;2023-04-20T04:55:11;100049.13;;;6.81;94.67
42761;BME280;31672;47.638;19.026;2023-04-20T05:00:17;100053.91;;;6.95;94.32
42761;BME280;31672;47.638;19.026;2023-04-20T05:05:21;100054.47;;;7.17;94.35
42761;BME280;31672;47.638;19.026;2023-04-20T05:10:24;100050.47;;;7.31;93.51
42761;BME280;31672;47.638;19.026;2023-04-20T05:15:27;100053.72;;;7.42;92.79
42761;BME280;31672;47.638;19.026;2023-04-20T05:20:30;100045.13;;;7.58;92.47
42761;BME280;31672;47.638;19.026;2023-04-20T05:25:33;100060.81;;;7.77;92.25
42761;BME280;31672;47.638;19.026;2023-04-20T05:30:36;100053.06;;;8.02;92.07
42761;BME280;31672;47.638;19.026;2023-04-20T05:35:39;100059.50;;;8.25;91.40
42761;BME280;31672;47.638;19.026;2023-04-20T05:40:43;100065.94;;;8.49;90.56
42761;BME280;31672;47.638;19.026;2023-04-20T05:45:47;100071.00;;;8.68;89.50
42761;BME280;31672;47.638;19.026;2023-04-20T05:50:50;100076.91;;;8.88;88.81
42761;BME280;31672;47.638;19.026;2023-04-20T05:55:53;100079.94;;;9.09;88.06
42761;BME280;31672;47.638;19.026;2023-04-20T06:00:56;100071.22;;;9.33;87.52
42761;BME280;31672;47.638;19.026;2023-04-20T06:05:59;100072.59;;;9.54;85.93
42761;BME280;31672;47.638;19.026;2023-04-20T06:11:02;100079.91;;;9.84;85.33
42761;BME280;31672;47.638;19.026;2023-04-20T06:16:06;100075.25;;;10.03;84.01
42761;BME280;31672;47.638;19.026;2023-04-20T06:21:11;100075.91;;;10.21;83.41
42761;BME280;31672;47.638;19.026;2023-04-20T06:26:14;100073.53;;;10.42;82.33
42761;BME280;31672;47.638;19.026;2023-04-20T06:31:18;100076.81;;;10.69;81.12
42761;BME280;31672;47.638;19.026;2023-04-20T06:36:22;100075.53;;;10.96;79.61
42761;BME280;31672;47.638;19.026;2023-04-20T06:41:25;100076.72;;;11.24;77.39
42761;BME280;31672;47.638;19.026;2023-04-20T06:46:28;100078.31;;;11.57;75.23
42761;BME280;31672;47.638;19.026;2023-04-20T06:51:32;100071.88;;;11.82;72.41
42761;BME280;31672;47.638;19.026;2023-04-20T06:56:36;100071.47;;;12.08;71.40
42761;BME280;31672;47.638;19.026;2023-04-20T07:01:39;100068.47;;;12.26;70.40
42761;BME280;31672;47.638;19.026;2023-04-20T07:06:42;100072.91;;;12.48;69.60
42761;BME280;31672;47.638;19.026;2023-04-20T07:11:45;100079.22;;;12.77;68.79
42761;BME280;31672;47.638;19.026;2023-04-20T07:16:52;100075.06;;;13.04;66.67
42761;BME280;31672;47.638;19.026;2023-04-20T07:21:55;100067.91;;;13.41;64.29
42761;BME280;31672;47.638;19.026;2023-04-20T07:26:58;100069.50;;;13.78;60.35
42761;BME280;31672;47.638;19.026;2023-04-20T07:32:01;100069.13;;;14.58;60.65
42761;BME280;31672;47.638;19.026;2023-04-20T07:37:04;100069.25;;;15.46;52.89
42761;BME280;31672;47.638;19.026;2023-04-20T07:42:07;100068.44;;;15.52;55.30
42761;BME280;31672;47.638;19.026;2023-04-20T07:47:10;100077.56;;;15.71;53.85
42761;BME280;31672;47.638;19.026;2023-04-20T07:52:13;100069.31;;;16.45;51.49
42761;BME280;31672;47.638;19.026;2023-04-20T07:57:19;100074.72;;;16.25;49.61
42761;BME280;31672;47.638;19.026;2023-04-20T08:02:22;100059.66;;;15.91;50.02
42761;BME280;31672;47.638;19.026;2023-04-20T08:07:26;100068.91;;;15.75;49.08
42761;BME280;31672;47.638;19.026;2023-04-20T08:12:29;100067.22;;;15.61;49.16
42761;BME280;31672;47.638;19.026;2023-04-20T08:17:33;100070.94;;;15.60;50.32
42761;BME280;31672;47.638;19.026;2023-04-20T08:22:37;100076.09;;;15.55;50.42
42761;BME280;31672;47.638;19.026;2023-04-20T08:27:41;100068.53;;;15.78;49.89
42761;BME280;31672;47.638;19.026;2023-04-20T08:32:44;100061.72;;;15.89;48.93
42761;BME280;31672;47.638;19.026;2023-04-20T08:37:48;100066.06;;;16.03;49.81
42761;BME280;31672;47.638;19.026;2023-04-20T08:42:51;100054.69;;;16.35;49.24
42761;BME280;31672;47.638;19.026;2023-04-20T08:47:57;100056.03;;;16.83;47.31
42761;BME280;31672;47.638;19.026;2023-04-20T08:53:00;100048.84;;;17.22;44.55
42761;BME280;31672;47.638;19.026;2023-04-20T08:58:05;100055.88;;;17.86;44.93
42761;BME280;31672;47.638;19.026;2023-04-20T09:03:08;100051.13;;;18.75;42.45
42761;BME280;31672;47.638;19.026;2023-04-20T09:08:11;100049.81;;;19.74;41.10
42761;BME280;31672;47.638;19.026;2023-04-20T09:13:21;100047.63;;;20.42;38.64
42761;BME280;31672;47.638;19.026;2023-04-20T09:18:25;100035.06;;;20.59;36.76
42761;BME280;31672;47.638;19.026;2023-04-20T09:23:27;100041.53;;;20.58;36.80
42761;BME280;31672;47.638;19.026;2023-04-20T09:28:37;100037.63;;;20.42;37.23
42761;BME280;31672;47.638;19.026;2023-04-20T09:33:40;100030.72;;;20.70;36.79
42761;BME280;31672;47.638;19.026;2023-04-20T09:38:43;100034.81;;;20.37;35.40
42761;BME280;31672;47.638;19.026;2023-04-20T09:43:47;100033.66;;;20.56;34.96
42761;BME280;31672;47.638;19.026;2023-04-20T09:48:50;100024.44;;;20.81;34.67
42761;BME280;31672;47.638;19.026;2023-04-20T09:53:58;100016.50;;;21.60;35.52
42761;BME280;31672;47.638;19.026;2023-04-20T09:59:03;100017.75;;;21.86;33.98
42761;BME280;31672;47.638;19.026;2023-04-20T10:04:07;100010.44;;;22.03;33.91
42761;BME280;31672;47.638;19.026;2023-04-20T10:09:22;99999.72;;;21.75;32.60
42761;BME280;31672;47.638;19.026;2023-04-20T10:14:27;99999.53;;;21.19;34.25
42761;BME280;31672;47.638;19.026;2023-04-20T10:19:42;99994.34;;;20.49;35.55
42761;BME280;31672;47.638;19.026;2023-04-20T10:24:45;99998.38;;;19.99;36.68
42761;BME280;31672;47.638;19.026;2023-04-20T10:29:48;99990.97;;;19.95;37.50
42761;BME280;31672;47.638;19.026;2023-04-20T10:35:06;99981.13;;;20.00;36.92
42761;BME280;31672;47.638;19.026;2023-04-20T10:40:11;99981.09;;;20.59;37.96
42761;BME280;31672;47.638;19.026;2023-04-20T10:45:14;99987.31;;;20.36;35.93
42761;BME280;31672;47.638;19.026;2023-04-20T10:50:18;99981.47;;;20.16;36.72
42761;BME280;31672;47.638;19.026;2023-04-20T10:55:24;99979.81;;;20.26;37.68
42761;BME280;31672;47.638;19.026;2023-04-20T11:00:27;99964.66;;;20.37;36.94
42761;BME280;31672;47.638;19.026;2023-04-20T11:05:32;99963.28;;;20.23;35.50
42761;BME280;31672;47.638;19.026;2023-04-20T11:10:40;99966.50;;;20.72;36.18
42761;BME280;31672;47.638;19.026;2023-04-20T11:15:44;99965.84;;;21.10;34.12
42761;BME280;31672;47.638;19.026;2023-04-20T11:20:52;99958.25;;;21.07;33.59
42761;BME280;31672;47.638;19.026;2023-04-20T11:25:56;99939.53;;;21.17;34.96
42761;BME280;31672;47.638;19.026;2023-04-20T11:30:59;99951.44;;;21.04;33.35
42761;BME280;31672;47.638;19.026;2023-04-20T11:36:02;99942.59;;;21.54;34.22
42761;BME280;31672;47.638;19.026;2023-04-20T11:41:06;99947.41;;;21.69;32.53
42761;BME280;31672;47.638;19.026;2023-04-20T11:46:18;99942.75;;;21.81;32.79
42761;BME280;31672;47.638;19.026;2023-04-20T11:51:22;99938.31;;;22.53;30.66
42761;BME280;31672;47.638;19.026;2023-04-20T11:56:25;99942.66;;;23.30;30.27
42761;BME280;31672;47.638;19.026;2023-04-20T12:01:28;99933.84;;;23.76;30.08
42761;BME280;31672;47.638;19.026;2023-04-20T12:06:31;99931.53;;;24.48;30.16
42761;BME280;31672;47.638;19.026;2023-04-20T12:11:35;99936.25;;;24.15;26.32
42761;BME280;31672;47.638;19.026;2023-04-20T12:16:38;99938.38;;;23.34;26.87
42761;BME280;31672;47.638;19.026;2023-04-20T12:21:41;99932.50;;;22.66;27.85
42761;BME280;31672;47.638;19.026;2023-04-20T12:26:44;99931.75;;;21.88;29.26
42761;BME280;31672;47.638;19.026;2023-04-20T12:31:47;99935.41;;;21.15;31.44
42761;BME280;31672;47.638;19.026;2023-04-20T12:36:50;99936.38;;;20.63;31.85
42761;BME280;31672;47.638;19.026;2023-04-20T12:41:54;99930.44;;;20.14;33.22
42761;BME280;31672;47.638;19.026;2023-04-20T12:46:57;99940.91;;;19.87;32.81
42761;BME280;31672;47.638;19.026;2023-04-20T12:52:00;99927.19;;;19.77;33.03
42761;BME280;31672;47.638;19.026;2023-04-20T12:57:03;99917.00;;;20.54;32.08
42761;BME280;31672;47.638;19.026;2023-04-20T13:02:06;99908.53;;;21.36;28.74
42761;BME280;31672;47.638;19.026;2023-04-20T13:07:09;99908.06;;;21.95;28.85
42761;BME280;31672;47.638;19.026;2023-04-20T13:12:13;99901.75;;;22.50;27.63
42761;BME280;31672;47.638;19.026;2023-04-20T13:17:17;99900.09;;;22.98;28.82
42761;BME280;31672;47.638;19.026;2023-04-20T13:22:20;99892.06;;;23.40;28.52
42761;BME280;31672;47.638;19.026;2023-04-20T13:27:24;99896.59;;;23.03;28.39
42761;BME280;31672;47.638;19.026;2023-04-20T13:32:27;99896.94;;;22.57;28.61
42761;BME280;31672;47.638;19.026;2023-04-20T13:37:30;99893.13;;;21.92;29.33
42761;BME280;31672;47.638;19.026;2023-04-20T13:42:35;99887.03;;;22.68;29.26
42761;BME280;31672;47.638;19.026;2023-04-20T13:47:39;99877.13;;;23.70;28.02
42761;BME280;31672;47.638;19.026;2023-04-20T13:52:42;99865.50;;;24.37;26.26
42761;BME280;31672;47.638;19.026;2023-04-20T13:57:45;99863.94;;;24.62;27.62
42761;BME280;31672;47.638;19.026;2023-04-20T14:02:48;99864.25;;;25.01;26.11
42761;BME280;31672;47.638;19.026;2023-04-20T14:07:52;99857.97;;;25.82;25.20
42761;BME280;31672;47.638;19.026;2023-04-20T14:12:55;99854.94;;;25.94;23.78
42761;BME280;31672;47.638;19.026;2023-04-20T14:17:58;99840.75;;;26.02;23.93
42761;BME280;31672;47.638;19.026;2023-04-20T14:23:02;99837.50;;;26.00;24.82
42761;BME280;31672;47.638;19.026;2023-04-20T14:28:05;99844.72;;;26.30;23.08
42761;BME280;31672;47.638;19.026;2023-04-20T14:33:08;99840.06;;;26.35;24.62
42761;BME280;31672;47.638;19.026;2023-04-20T14:38:11;99839.25;;;26.35;23.76
42761;BME280;31672;47.638;19.026;2023-04-20T14:43:14;99838.09;;;26.51;22.17
42761;BME280;31672;47.638;19.026;2023-04-20T14:48:17;99838.88;;;25.97;23.89
42761;BME280;31672;47.638;19.026;2023-04-20T14:53:21;99835.97;;;25.63;22.62
42761;BME280;31672;47.638;19.026;2023-04-20T14:58:24;99829.97;;;24.64;24.50
42761;BME280;31672;47.638;19.026;2023-04-20T15:03:27;99823.75;;;24.79;25.51
42761;BME280;31672;47.638;19.026;2023-04-20T15:08:30;99830.00;;;25.00;23.37
42761;BME280;31672;47.638;19.026;2023-04-20T15:13:33;99827.31;;;24.90;24.07
42761;BME280;31672;47.638;19.026;2023-04-20T15:18:37;99832.16;;;24.82;24.96
42761;BME280;31672;47.638;19.026;2023-04-20T15:23:39;99830.03;;;24.90;24.25
42761;BME280;31672;47.638;19.026;2023-04-20T15:28:42;99834.88;;;24.57;25.04
42761;BME280;31672;47.638;19.026;2023-04-20T15:33:46;99838.41;;;24.68;25.15
42761;BME280;31672;47.638;19.026;2023-04-20T15:38:51;99842.91;;;24.32;25.26
42761;BME280;31672;47.638;19.026;2023-04-20T15:43:57;99838.41;;;23.90;25.69
42761;BME280;31672;47.638;19.026;2023-04-20T15:49:00;99841.78;;;23.22;26.52
42761;BME280;31672;47.638;19.026;2023-04-20T15:54:04;99861.44;;;22.81;27.37
42761;BME280;31672;47.638;19.026;2023-04-20T15:59:07;99848.53;;;21.56;32.06
42761;BME280;31672;47.638;19.026;2023-04-20T16:04:10;99862.56;;;20.74;33.03
42761;BME280;31672;47.638;19.026;2023-04-20T16:09:14;99859.75;;;20.00;35.58
42761;BME280;31672;47.638;19.026;2023-04-20T16:14:17;99871.34;;;19.19;37.74
42761;BME280;31672;47.638;19.026;2023-04-20T16:19:20;99864.66;;;18.68;39.52
42761;BME280;31672;47.638;19.026;2023-04-20T16:24:24;99874.25;;;18.45;41.18
42761;BME280;31672;47.638;19.026;2023-04-20T16:29:27;99901.34;;;18.14;42.34
42761;BME280;31672;47.638;19.026;2023-04-20T16:34:30;99914.47;;;17.60;44.27
42761;BME280;31672;47.638;19.026;2023-04-20T16:39:33;99910.78;;;17.05;46.11
42761;BME280;31672;47.638;19.026;2023-04-20T16:44:37;99924.19;;;16.60;47.23
42761;BME280;31672;47.638;19.026;2023-04-20T16:49:43;99923.91;;;16.30;48.21
42761;BME280;31672;47.638;19.026;2023-04-20T16:54:46;99918.41;;;16.12;48.93
42761;BME280;31672;47.638;19.026;2023-04-20T16:59:49;99917.81;;;16.03;49.02
42761;BME280;31672;47.638;19.026;2023-04-20T17:04:52;99927.53;;;15.91;50.76
42761;BME280;31672;47.638;19.026;2023-04-20T17:09:56;99937.22;;;15.52;54.87
42761;BME280;31672;47.638;19.026;2023-04-20T17:14:59;99934.31;;;15.07;54.45
42761;BME280;31672;47.638;19.026;2023-04-20T17:20:02;99923.53;;;14.81;56.36
42761;BME280;31672;47.638;19.026;2023-04-20T17:25:09;99896.97;;;14.59;55.83
42761;BME280;31672;47.638;19.026;2023-04-20T17:30:12;99909.91;;;14.62;56.46
42761;BME280;31672;47.638;19.026;2023-04-20T17:35:16;99929.50;;;14.69;55.08
42761;BME280;31672;47.638;19.026;2023-04-20T17:40:19;99940.00;;;14.78;58.45
42761;BME280;31672;47.638;19.026;2023-04-20T17:45:22;99944.31;;;14.79;56.97
42761;BME280;31672;47.638;19.026;2023-04-20T17:50:25;99954.63;;;14.82;57.66
42761;BME280;31672;47.638;19.026;2023-04-20T17:55:29;99958.75;;;14.84;58.08
42761;BME280;31672;47.638;19.026;2023-04-20T18:00:32;99960.16;;;14.80;58.93
42761;BME280;31672;47.638;19.026;2023-04-20T18:05:35;99963.88;;;14.79;59.69
42761;BME280;31672;47.638;19.026;2023-04-20T18:10:38;99977.00;;;14.74;58.51
42761;BME280;31672;47.638;19.026;2023-04-20T18:15:41;99975.59;;;14.71;59.24
42761;BME280;31672;47.638;19.026;2023-04-20T18:20:46;99981.31;;;14.68;60.11
42761;BME280;31672;47.638;19.026;2023-04-20T18:25:49;99993.84;;;14.61;60.69
42761;BME280;31672;47.638;19.026;2023-04-20T18:30:55;100008.41;;;14.52;61.16
42761;BME280;31672;47.638;19.026;2023-04-20T18:36:00;100019.63;;;14.41;60.82
42761;BME280;31672;47.638;19.026;2023-04-20T18:41:03;100026.78;;;14.34;61.54
42761;BME280;31672;47.638;19.026;2023-04-20T18:46:07;100039.66;;;14.24;61.79
42761;BME280;31672;47.638;19.026;2023-04-20T18:51:10;100039.44;;;14.18;62.29
42761;BME280;31672;47.638;19.026;2023-04-20T18:56:13;100052.13;;;14.10;62.08
42761;BME280;31672;47.638;19.026;2023-04-20T19:01:16;100050.22;;;14.04;62.96
42761;BME280;31672;47.638;19.026;2023-04-20T19:06:20;100045.56;;;13.91;63.72
42761;BME280;31672;47.638;19.026;2023-04-20T19:11:26;100049.88;;;13.85;64.23
42761;BME280;31672;47.638;19.026;2023-04-20T19:16:31;100044.44;;;13.79;63.87
42761;BME280;31672;47.638;19.026;2023-04-20T19:21:35;100047.25;;;13.71;64.46
42761;BME280;31672;47.638;19.026;2023-04-20T19:26:38;100051.09;;;13.61;64.93
42761;BME280;31672;47.638;19.026;2023-04-20T19:31:41;100061.25;;;13.51;65.34
42761;BME280;31672;47.638;19.026;2023-04-20T19:36:44;100056.41;;;13.40;65.11
42761;BME280;31672;47.638;19.026;2023-04-20T19:41:47;100061.69;;;13.33;65.20
42761;BME280;31672;47.638;19.026;2023-04-20T19:46:50;100057.38;;;13.18;65.03
42761;BME280;31672;47.638;19.026;2023-04-20T19:51:53;100061.44;;;13.13;65.19
42761;BME280;31672;47.638;19.026;2023-04-20T19:56:56;100066.03;;;13.05;65.32
42761;BME280;31672;47.638;19.026;2023-04-20T20:01:59;100067.34;;;12.94;65.14
42761;BME280;31672;47.638;19.026;2023-04-20T20:07:02;100071.50;;;12.82;65.57
42761;BME280;31672;47.638;19.026;2023-04-20T20:12:06;100071.97;;;12.71;66.26
42761;BME280;31672;47.638;19.026;2023-04-20T20:17:12;100073.44;;;12.58;66.69
42761;BME280;31672;47.638;19.026;2023-04-20T20:22:16;100074.91;;;12.46;66.76
42761;BME280;31672;47.638;19.026;2023-04-20T20:27:21;100073.34;;;12.37;66.75
42761;BME280;31672;47.638;19.026;2023-04-20T20:32:24;100074.63;;;12.26;67.04
42761;BME280;31672;47.638;19.026;2023-04-20T20:37:27;100081.22;;;12.16;67.41
42761;BME280;31672;47.638;19.026;2023-04-20T20:42:37;100081.63;;;12.04;67.64
42761;BME280;31672;47.638;19.026;2023-04-20T20:47:43;100091.72;;;11.94;67.78
42761;BME280;31672;47.638;19.026;2023-04-20T20:52:47;100085.81;;;11.84;67.66
42761;BME280;31672;47.638;19.026;2023-04-20T20:57:50;100086.38;;;11.71;69.30
42761;BME280;31672;47.638;19.026;2023-04-20T21:02:53;100093.13;;;11.59;69.79
42761;BME280;31672;47.638;19.026;2023-04-20T21:07:57;100097.66;;;11.50;70.76
42761;BME280;31672;47.638;19.026;2023-04-20T21:13:00;100099.38;;;11.43;70.54
42761;BME280;31672;47.638;19.026;2023-04-20T21:18:03;100104.38;;;11.38;70.56
42761;BME280;31672;47.638;19.026;2023-04-20T21:23:06;100102.09;;;11.35;71.17
42761;BME280;31672;47.638;19.026;2023-04-20T21:28:09;100109.72;;;11.38;71.29
42761;BME280;31672;47.638;19.026;2023-04-20T21:33:12;100107.72;;;11.40;71.35
42761;BME280;31672;47.638;19.026;2023-04-20T21:38:15;100108.84;;;11.46;71.05
42761;BME280;31672;47.638;19.026;2023-04-20T21:43:18;100108.00;;;11.45;71.37
42761;BME280;31672;47.638;19.026;2023-04-20T21:48:21;100104.50;;;11.45;71.33
42761;BME280;31672;47.638;19.026;2023-04-20T21:53:24;100114.50;;;11.43;71.03
42761;BME280;31672;47.638;19.026;2023-04-20T21:58:27;100108.06;;;11.37;70.69
42761;BME280;31672;47.638;19.026;2023-04-20T22:03:32;100107.75;;;11.32;70.69
42761;BME280;31672;47.638;19.026;2023-04-20T22:08:37;100112.59;;;11.29;70.61
42761;BME280;31672;47.638;19.026;2023-04-20T22:13:41;100114.97;;;11.23;70.14
42761;BME280;31672;47.638;19.026;2023-04-20T22:18:46;100107.50;;;11.19;69.98
42761;BME280;31672;47.638;19.026;2023-04-20T22:23:49;100103.69;;;11.13;69.59
42761;BME280;31672;47.638;19.026;2023-04-20T22:28:52;100109.38;;;11.10;69.45
42761;BME280;31672;47.638;19.026;2023-04-20T22:33:55;100103.06;;;11.03;69.47
42761;BME280;31672;47.638;19.026;2023-04-20T22:38:58;100112.41;;;10.99;69.20
42761;BME280;31672;47.638;19.026;2023-04-20T22:44:01;100108.13;;;10.90;69.18
42761;BME280;31672;47.638;19.026;2023-04-20T22:49:05;100099.69;;;10.78;69.70
42761;BME280;31672;47.638;19.026;2023-04-20T22:54:08;100101.03;;;10.74;68.79
42761;BME280;31672;47.638;19.026;2023-04-20T22:59:11;100088.59;;;10.66;68.69
42761;BME280;31672;47.638;19.026;2023-04-20T23:04:14;100094.44;;;10.62;68.58
42761;BME280;31672;47.638;19.026;2023-04-20T23:09:17;100097.09;;;10.54;68.41
42761;BME280;31672;47.638;19.026;2023-04-20T23:14:23;100092.13;;;10.42;68.88
42761;BME280;31672;47.638;19.026;2023-04-20T23:19:26;100092.66;;;10.30;69.12
42761;BME280;31672;47.638;19.026;2023-04-20T23:24:30;100091.31;;;10.17;69.47
42761;BME280;31672;47.638;19.026;2023-04-20T23:29:33;100092.66;;;10.05;69.28
42761;BME280;31672;47.638;19.026;2023-04-20T23:34:36;100093.16;;;9.92;69.66
42761;BME280;31672;47.638;19.026;2023-04-20T23:39:39;100095.97;;;9.83;70.14
42761;BME280;31672;47.638;19.026;2023-04-20T23:44:42;100098.81;;;9.73;70.28
42761;BME280;31672;47.638;19.026;2023-04-20T23:49:45;100105.59;;;9.68;70.31
42761;BME280;31672;47.638;19.026;2023-04-20T23:54:48;100104.59;;;9.60;70.32
42761;BME280;31672;47.638;19.026;2023-04-20T23:59:51;100105.09;;;9.56;70.29
